Time;durP1;ratioP1;P1;durP2;ratioP2;P2;SDS_P1;SDS_P2;PMS_P1;PMS_P2;Temp;Humidity;BMP_temperature;BMP_pressure;BME280_temperature;BME280_humidity;BME280_pressure;Samples;Min_cycle;Max_cycle;Signal;HPM_P1;HPM_P2
2021/12/20 00:00:50;;;;;;;;;;;;;;;;;;2059221;28;1336;-82
2021/12/20 00:01:51;;;;;;;;;;;;;;;;;;2057091;28;1073;-80
2021/12/20 00:02:54;;;;;;;;;;;;;;;;;;2067188;28;1339;-80
2021/12/20 00:03:54;;;;;;;;;;;;;;;;;;2067131;28;1459;-80
2021/12/20 00:04:56;;;;;;;;;;;;;;;;;;2058966;28;1717;-80
2021/12/20 00:05:58;;;;;;;;;;;;;;;;;;2050716;29;2125;-80
2021/12/20 00:07:00;;;;;;;;;;;;;;;;;;2050649;28;1332;-81
2021/12/20 00:08:01;;;;;;;;;;;;;;;;;;2059397;28;1071;-81
2021/12/20 00:09:02;;;;;;;;;;;;;;;;;;2067501;28;821;-81
2021/12/20 00:10:05;;;;;;;;;;;;;;;;;;2067770;28;887;-81
2021/12/20 00:11:05;;;;;;;;;;;;;;;;;;2069328;28;1239;-79
2021/12/20 00:12:07;;;;;;;;;;;;;;;;;;2067111;28;1311;-80
2021/12/20 00:13:09;;;;;;;;;;;;;;;;;;2066840;28;1906;-80
2021/12/20 00:14:10;;;;;;;;;;;;;;;;;;2076122;28;879;-80
2021/12/20 00:15:11;;;;;;;;;;;;;;;;;;2066347;28;1216;-81
2021/12/20 00:16:13;;;;;;;;;;;;;;;;;;2063792;28;2045;-80
2021/12/20 00:17:13;;;;;;;;;;;;;;;;;;2058884;28;1289;-80
2021/12/20 00:18:15;;;;;;;;;;;;;;;;;;2051201;29;1630;-80
2021/12/20 00:19:16;;;;;;;;;;;;;;;;;;2050845;28;1503;-80
2021/12/20 00:20:18;;;;;;;;;;;;;;;;;;2058925;28;1351;-80
2021/12/20 00:21:20;;;;;;;;;;;;;;;;;;2058683;28;1447;-80
2021/12/20 00:22:23;;;;;;;;;;;;;;;;;;2058774;28;1828;-80
2021/12/20 00:23:24;;;;;;;;;;;;;;;;;;2058990;28;1731;-81
2021/12/20 00:24:26;;;;;;;;;;;;;;;;;;2059012;28;1810;-81
2021/12/20 00:25:27;;;;;;;;;;;;;;;;;;2058655;28;891;-81
2021/12/20 00:26:28;;;;;;;;;;;;;;;;;;2070131;28;1977;-80
2021/12/20 00:27:30;;;;;;;;;;;;;;;;;;2075640;28;1064;-81
2021/12/20 00:28:30;;;;;;;;;;;;;;;;;;2066961;28;1498;-81
2021/12/20 00:29:32;;;;;;;;;;;;;;;;;;2058771;28;1581;-81
2021/12/20 00:30:33;;;;;;;;;;;;;;;;;;2058461;28;1261;-80
2021/12/20 00:31:34;;;;;;;;;;;;;;;;;;2057938;28;1271;-83
2021/12/20 00:32:36;;;;;;;;;;;;;;;;;;2067028;28;1911;-80
2021/12/20 00:33:37;;;;;;;;;;;;;;;;;;2066785;28;1555;-80
2021/12/20 00:34:41;;;;;;;;;;;;;;;;;;2059266;28;1267;-80
2021/12/20 00:35:42;;;;;;;;;;;;;;;;;;2066950;28;1060;-80
2021/12/20 00:36:44;;;;;;;;;;;;;;;;;;2066357;28;2024;-80
2021/12/20 00:40:25;;;;;;;;;;;;;;;;;;2066852;28;1248;-80
2021/12/20 00:41:25;;;;;;;;;;;;;;;;;;2066797;28;1539;-80
2021/12/20 00:42:27;;;;;;;;;;;;;;;;;;2067040;28;1205;-80
2021/12/20 00:43:29;;;;;;;;;;;;;;;;;;2058591;28;1686;-81
2021/12/20 00:44:29;;;;;;;;;;;;;;;;;;2062358;28;1197;-80
2021/12/20 00:45:32;;;;;;;;;;;;;;;;;;2066800;28;1567;-80
2021/12/20 00:46:33;;;;;;;;;;;;;;;;;;2058931;28;1221;-80
2021/12/20 00:47:35;;;;;;;;;;;;;;;;;;2058666;28;1372;-80
2021/12/20 00:48:35;;;;;;;;;;;;;;;;;;2058914;28;1182;-81
2021/12/20 00:49:37;;;;;;;;;;;;;;;;;;2055104;28;1807;-80
2021/12/20 00:50:39;;;;;;;;;;;;;;;;;;2058923;28;1294;-80
2021/12/20 00:51:41;;;;;;;;;;;;;;;;;;2044578;28;1863;-80
2021/12/20 00:52:43;;;;;;;;;;;;;;;;;;2040130;29;1910;-80
2021/12/20 00:53:45;;;;;;;;;;;;;;;;;;2050864;29;1386;-80
2021/12/20 00:54:45;;;;;;;;;;;;;;;;;;2056565;28;837;-80
2021/12/20 00:55:47;;;;;;;;;;;;;;;;;;2059169;28;816;-80
2021/12/20 00:56:49;;;;;;;;;;;;;;;;;;2059224;28;810;-80
2021/12/20 00:57:52;;;;;;;;;;;;;;;;;;2058754;28;1503;-80
2021/12/20 00:58:53;;;;;;;;;;;;;;;;;;2058940;28;907;-80
2021/12/20 00:59:54;;;;;;;;;;;;;;;;;;2058497;28;1517;-80
2021/12/20 01:00:56;;;;;;;;;;;;;;;;;;2058642;28;1082;-80
2021/12/20 01:02:00;;;;;;;;;;;;;;;;;;2058937;28;1218;-85
2021/12/20 01:03:02;;;;;;;;;;;;;;;;;;2058707;28;1709;-80
2021/12/20 01:04:04;;;;;;;;;;;;;;;;;;2050811;29;1198;-80
2021/12/20 01:05:06;;;;;;;;;;;;;;;;;;2050716;28;1786;-80
2021/12/20 01:06:08;;;;;;;;;;;;;;;;;;2061169;28;1833;-80
2021/12/20 01:07:08;;;;;;;;;;;;;;;;;;2066740;28;1549;-80
2021/12/20 01:08:11;;;;;;;;;;;;;;;;;;2066607;28;1204;-80
2021/12/20 01:09:12;;;;;;;;;;;;;;;;;;2066741;28;1504;-80
2021/12/20 01:10:14;;;;;;;;;;;;;;;;;;2066661;28;1256;-80
2021/12/20 01:11:20;;;;;;;;;;;;;;;;;;2058425;28;1506;-81
2021/12/20 01:12:23;;;;;;;;;;;;;;;;;;2051329;28;1672;-80
2021/12/20 01:13:28;;;;;;;;;;;;;;;;;;2058345;28;1910;-80
2021/12/20 01:14:32;;;;;;;;;;;;;;;;;;2066883;28;1319;-80
2021/12/20 01:15:35;;;;;;;;;;;;;;;;;;2058310;28;1387;-80
2021/12/20 01:16:37;;;;;;;;;;;;;;;;;;2050723;28;1254;-80
2021/12/20 01:17:37;;;;;;;;;;;;;;;;;;2058512;28;1226;-80
2021/12/20 01:18:39;;;;;;;;;;;;;;;;;;2058564;28;1702;-80
2021/12/20 01:19:40;;;;;;;;;;;;;;;;;;2050396;28;1653;-80
2021/12/20 01:20:42;;;;;;;;;;;;;;;;;;2050675;29;1268;-80
2021/12/20 01:21:43;;;;;;;;;;;;;;;;;;2065263;28;2127;-80
2021/12/20 01:22:46;;;;;;;;;;;;;;;;;;2066254;28;1310;-80
2021/12/20 01:23:49;;;;;;;;;;;;;;;;;;2066473;28;868;-80
2021/12/20 01:24:49;;;;;;;;;;;;;;;;;;2066493;28;1505;-80
2021/12/20 01:25:51;;;;;;;;;;;;;;;;;;2066755;28;729;-80
2021/12/20 01:26:52;;;;;;;;;;;;;;;;;;2075142;28;824;-80
2021/12/20 01:27:53;;;;;;;;;;;;;;;;;;2066336;28;1244;-80
2021/12/20 01:28:54;;;;;;;;;;;;;;;;;;2066309;28;1312;-80
2021/12/20 01:29:57;;;;;;;;;;;;;;;;;;2066628;28;793;-80
2021/12/20 01:30:59;;;;;;;;;;;;;;;;;;2065427;28;1224;-81
2021/12/20 01:32:01;;;;;;;;;;;;;;;;;;2050503;28;1644;-80
2021/12/20 01:33:02;;;;;;;;;;;;;;;;;;2050358;28;1972;-80
2021/12/20 01:34:04;;;;;;;;;;;;;;;;;;2050510;29;1636;-80
2021/12/20 01:35:05;;;;;;;;;;;;;;;;;;2058309;28;1524;-81
2021/12/20 01:36:06;;;;;;;;;;;;;;;;;;2066191;28;2019;-80
2021/12/20 01:37:07;;;;;;;;;;;;;;;;;;2066322;28;875;-80
2021/12/20 01:38:09;;;;;;;;;;;;;;;;;;2066401;28;1512;-80
2021/12/20 01:39:12;;;;;;;;;;;;;;;;;;2058289;28;1349;-80
2021/12/20 01:40:15;;;;;;;;;;;;;;;;;;2058452;28;1230;-80
2021/12/20 01:41:17;;;;;;;;;;;;;;;;;;2058138;28;1864;-80
2021/12/20 01:42:18;;;;;;;;;;;;;;;;;;2058169;28;1514;-79
2021/12/20 01:43:19;;;;;;;;;;;;;;;;;;2057977;28;1521;-80
2021/12/20 01:44:21;;;;;;;;;;;;;;;;;;2058474;28;878;-80
2021/12/20 01:45:24;;;;;;;;;;;;;;;;;;2066935;28;927;-80
2021/12/20 01:46:25;;;;;;;;;;;;;;;;;;2066493;28;1649;-81
2021/12/20 01:47:30;;;;;;;;;;;;;;;;;;2058127;28;1803;-81
2021/12/20 01:48:32;;;;;;;;;;;;;;;;;;2058840;28;1407;-80
2021/12/20 01:49:40;;;;;;;;;;;;;;;;;;2066319;28;1265;-80
2021/12/20 01:50:52;;;;;;;;;;;;;;;;;;2066505;28;1231;-80
2021/12/20 01:52:03;;;;;;;;;;;;;;;;;;2058337;28;983;-80
2021/12/20 01:53:05;;;;;;;;;;;;;;;;;;2050109;29;1934;-81
2021/12/20 01:54:06;;;;;;;;;;;;;;;;;;2042435;29;1460;-80
2021/12/20 01:55:10;;;;;;;;;;;;;;;;;;2050116;28;1012;-80
2021/12/20 01:56:12;;;;;;;;;;;;;;;;;;2058465;28;1563;-80
2021/12/20 01:57:12;;;;;;;;;;;;;;;;;;2050134;29;1504;-80
2021/12/20 01:58:14;;;;;;;;;;;;;;;;;;2042456;29;1317;-79
2021/12/20 01:59:15;;;;;;;;;;;;;;;;;;2050125;29;1347;-80
2021/12/20 02:00:23;;;;;;;;;;;;;;;;;;2058322;28;1626;-80
2021/12/20 02:01:24;;;;;;;;;;;;;;;;;;2062516;28;968;-80
2021/12/20 02:02:26;;;;;;;;;;;;;;;;;;2066138;28;1533;-81
2021/12/20 02:03:27;;;;;;;;;;;;;;;;;;2058100;28;1454;-80
2021/12/20 02:04:29;;;;;;;;;;;;;;;;;;2050309;28;1312;-82
2021/12/20 02:05:47;;;;;;;;;;;;;;;;;;2058008;28;1059;-80
2021/12/20 02:06:50;;;;;;;;;;;;;;;;;;2066820;28;936;-80
2021/12/20 02:07:53;;;;;;;;;;;;;;;;;;2058092;28;1533;-80
2021/12/20 02:08:55;;;;;;;;;;;;;;;;;;2058453;28;1638;-80
2021/12/20 02:09:56;;;;;;;;;;;;;;;;;;2066064;28;840;-80
2021/12/20 02:11:03;;;;;;;;;;;;;;;;;;2066447;28;950;-80
2021/12/20 02:12:05;;;;;;;;;;;;;;;;;;2058081;28;1371;-79
2021/12/20 02:13:05;;;;;;;;;;;;;;;;;;2057810;28;849;-81
2021/12/20 02:14:08;;;;;;;;;;;;;;;;;;2065970;28;2009;-85
2021/12/20 02:15:09;;;;;;;;;;;;;;;;;;2065943;28;813;-82
2021/12/20 02:16:11;;;;;;;;;;;;;;;;;;2066798;28;872;-80
2021/12/20 02:17:14;;;;;;;;;;;;;;;;;;2066111;28;1275;-80
2021/12/20 02:18:14;;;;;;;;;;;;;;;;;;2066328;28;854;-80
2021/12/20 02:19:17;;;;;;;;;;;;;;;;;;2066667;28;816;-81
2021/12/20 02:20:26;;;;;;;;;;;;;;;;;;2058131;28;1201;-80
2021/12/20 02:21:27;;;;;;;;;;;;;;;;;;2058607;28;1313;-80
2021/12/20 02:22:28;;;;;;;;;;;;;;;;;;2057984;28;1411;-81
2021/12/20 02:23:30;;;;;;;;;;;;;;;;;;2050066;29;1641;-81
2021/12/20 02:24:30;;;;;;;;;;;;;;;;;;2058334;28;867;-80
2021/12/20 02:25:33;;;;;;;;;;;;;;;;;;2066093;28;1705;-80
2021/12/20 02:26:36;;;;;;;;;;;;;;;;;;2071420;28;2122;-80
2021/12/20 02:27:36;;;;;;;;;;;;;;;;;;2066004;28;1755;-80
2021/12/20 02:28:42;;;;;;;;;;;;;;;;;;2058253;28;1269;-80
2021/12/20 02:29:57;;;;;;;;;;;;;;;;;;2066554;28;1430;-80
2021/12/20 02:37:34;;;;;;;;;;;;;;;;;;2053898;28;1869;-80
2021/12/20 02:38:35;;;;;;;;;;;;;;;;;;2058058;28;1317;-80
2021/12/20 02:39:37;;;;;;;;;;;;;;;;;;2065793;28;1711;-80
2021/12/20 02:40:37;;;;;;;;;;;;;;;;;;2058078;28;1498;-79
2021/12/20 02:41:39;;;;;;;;;;;;;;;;;;2057851;28;1293;-80
2021/12/20 02:42:42;;;;;;;;;;;;;;;;;;2058014;28;1584;-80
2021/12/20 02:43:50;;;;;;;;;;;;;;;;;;2057951;28;1407;-80
2021/12/20 02:45:06;;;;;;;;;;;;;;;;;;2050133;28;1705;-79
2021/12/20 02:46:23;;;;;;;;;;;;;;;;;;2051909;28;1287;-80
2021/12/20 02:47:28;;;;;;;;;;;;;;;;;;2049808;29;1681;-80
2021/12/20 02:48:29;;;;;;;;;;;;;;;;;;2045390;29;1593;-80
2021/12/20 02:49:31;;;;;;;;;;;;;;;;;;2053417;28;1434;-80
2021/12/20 02:50:33;;;;;;;;;;;;;;;;;;2065882;28;1066;-80
2021/12/20 02:51:35;;;;;;;;;;;;;;;;;;2062374;28;895;-80
2021/12/20 02:52:37;;;;;;;;;;;;;;;;;;2066648;28;879;-80
2021/12/20 02:53:37;;;;;;;;;;;;;;;;;;2065776;28;1906;-80
2021/12/20 02:54:39;;;;;;;;;;;;;;;;;;2059053;28;1376;-80
2021/12/20 02:55:41;;;;;;;;;;;;;;;;;;2059679;28;914;-80
2021/12/20 02:56:42;;;;;;;;;;;;;;;;;;2067422;28;1675;-81
2021/12/20 02:57:43;;;;;;;;;;;;;;;;;;2059446;28;1753;-81
2021/12/20 02:58:44;;;;;;;;;;;;;;;;;;2051401;28;1493;-80
2021/12/20 02:59:46;;;;;;;;;;;;;;;;;;2051506;28;1796;-80
2021/12/20 03:00:46;;;;;;;;;;;;;;;;;;2057416;28;991;-80
2021/12/20 03:01:49;;;;;;;;;;;;;;;;;;2074973;28;1968;-80
2021/12/20 03:02:51;;;;;;;;;;;;;;;;;;2075618;28;1114;-81
2021/12/20 03:03:52;;;;;;;;;;;;;;;;;;2076196;28;951;-80
2021/12/20 03:04:54;;;;;;;;;;;;;;;;;;2076621;28;796;-81
2021/12/20 03:05:55;;;;;;;;;;;;;;;;;;2075711;28;1232;-80
2021/12/20 03:07:00;;;;;;;;;;;;;;;;;;2075981;28;898;-80
2021/12/20 03:08:01;;;;;;;;;;;;;;;;;;2067431;28;1196;-81
2021/12/20 03:09:03;;;;;;;;;;;;;;;;;;2067580;28;1260;-80
2021/12/20 03:10:05;;;;;;;;;;;;;;;;;;2067618;28;1224;-79
2021/12/20 03:11:06;;;;;;;;;;;;;;;;;;2059464;28;1741;-83
2021/12/20 03:12:09;;;;;;;;;;;;;;;;;;2059463;28;1664;-79
2021/12/20 03:13:10;;;;;;;;;;;;;;;;;;2059757;28;1501;-80
2021/12/20 03:14:17;;;;;;;;;;;;;;;;;;2067608;28;1979;-79
2021/12/20 03:15:23;;;;;;;;;;;;;;;;;;2067397;28;1481;-80
2021/12/20 03:16:23;;;;;;;;;;;;;;;;;;2060009;28;1584;-80
2021/12/20 03:17:25;;;;;;;;;;;;;;;;;;2059406;28;1264;-79
2021/12/20 03:18:25;;;;;;;;;;;;;;;;;;2059667;28;1331;-79
2021/12/20 03:19:28;;;;;;;;;;;;;;;;;;2067528;28;816;-80
2021/12/20 03:20:28;;;;;;;;;;;;;;;;;;2076342;28;906;-80
2021/12/20 03:21:30;;;;;;;;;;;;;;;;;;2067304;28;1232;-79
2021/12/20 03:22:33;;;;;;;;;;;;;;;;;;2067375;28;1326;-79
2021/12/20 03:23:34;;;;;;;;;;;;;;;;;;2067456;28;1544;-80
2021/12/20 03:24:36;;;;;;;;;;;;;;;;;;2059240;28;1319;-79
2021/12/20 03:25:36;;;;;;;;;;;;;;;;;;2059343;28;1269;-80
2021/12/20 03:26:38;;;;;;;;;;;;;;;;;;2061118;28;915;-79
2021/12/20 03:27:39;;;;;;;;;;;;;;;;;;2068021;28;867;-79
2021/12/20 03:28:40;;;;;;;;;;;;;;;;;;2068218;28;978;-79
2021/12/20 03:29:41;;;;;;;;;;;;;;;;;;2059111;28;1305;-79
2021/12/20 03:30:44;;;;;;;;;;;;;;;;;;2059323;28;883;-81
2021/12/20 03:31:44;;;;;;;;;;;;;;;;;;2067861;28;1184;-79
2021/12/20 03:32:46;;;;;;;;;;;;;;;;;;2067371;28;1248;-80
2021/12/20 03:33:47;;;;;;;;;;;;;;;;;;2067368;28;1902;-79
2021/12/20 03:34:48;;;;;;;;;;;;;;;;;;2068052;28;832;-79
2021/12/20 03:35:50;;;;;;;;;;;;;;;;;;2058914;28;2009;-80
2021/12/20 03:36:51;;;;;;;;;;;;;;;;;;2057582;28;1219;-79
2021/12/20 03:37:54;;;;;;;;;;;;;;;;;;2067412;28;899;-79
2021/12/20 03:38:54;;;;;;;;;;;;;;;;;;2067314;28;1684;-79
2021/12/20 03:39:56;;;;;;;;;;;;;;;;;;2067308;28;804;-79
2021/12/20 03:40:57;;;;;;;;;;;;;;;;;;2067268;28;1892;-79
2021/12/20 03:41:59;;;;;;;;;;;;;;;;;;2059319;28;1260;-81
2021/12/20 03:43:00;;;;;;;;;;;;;;;;;;2050700;28;1335;-80
2021/12/20 03:44:05;;;;;;;;;;;;;;;;;;2059499;28;1652;-80
2021/12/20 03:45:06;;;;;;;;;;;;;;;;;;2059336;28;1575;-80
2021/12/20 03:46:07;;;;;;;;;;;;;;;;;;2059365;28;1606;-80
2021/12/20 03:47:08;;;;;;;;;;;;;;;;;;2059211;28;1583;-79
2021/12/20 03:48:10;;;;;;;;;;;;;;;;;;2059091;28;1331;-80
2021/12/20 03:49:10;;;;;;;;;;;;;;;;;;2058884;28;1613;-79
2021/12/20 03:50:12;;;;;;;;;;;;;;;;;;2059157;28;1493;-80
2021/12/20 03:51:13;;;;;;;;;;;;;;;;;;2067085;28;927;-80
2021/12/20 03:52:15;;;;;;;;;;;;;;;;;;2067785;28;910;-79
2021/12/20 03:53:17;;;;;;;;;;;;;;;;;;2059041;28;1593;-80
2021/12/20 03:54:18;;;;;;;;;;;;;;;;;;2059311;28;1914;-79
2021/12/20 03:55:19;;;;;;;;;;;;;;;;;;2067216;28;836;-79
2021/12/20 03:56:21;;;;;;;;;;;;;;;;;;2067788;28;800;-79
2021/12/20 03:57:21;;;;;;;;;;;;;;;;;;2066934;28;1648;-79
2021/12/20 03:58:25;;;;;;;;;;;;;;;;;;2067340;28;813;-80
2021/12/20 03:59:28;;;;;;;;;;;;;;;;;;2058898;28;1255;-80
2021/12/20 04:00:29;;;;;;;;;;;;;;;;;;2059428;28;1183;-80
2021/12/20 04:01:30;;;;;;;;;;;;;;;;;;2058887;28;1271;-80
2021/12/20 04:02:37;;;;;;;;;;;;;;;;;;2051104;28;1551;-80
2021/12/20 04:03:40;;;;;;;;;;;;;;;;;;2059924;28;1639;-80
2021/12/20 04:04:40;;;;;;;;;;;;;;;;;;2067247;28;1173;-80
2021/12/20 04:05:42;;;;;;;;;;;;;;;;;;2058953;28;1265;-80
2021/12/20 04:06:43;;;;;;;;;;;;;;;;;;2058742;28;2091;-80
2021/12/20 04:07:45;;;;;;;;;;;;;;;;;;2067404;28;794;-81
2021/12/20 04:08:48;;;;;;;;;;;;;;;;;;2067183;28;1519;-80
2021/12/20 04:09:50;;;;;;;;;;;;;;;;;;2067137;28;792;-80
2021/12/20 04:10:50;;;;;;;;;;;;;;;;;;2067722;28;1014;-80
2021/12/20 04:11:52;;;;;;;;;;;;;;;;;;2067603;28;812;-80
2021/12/20 04:12:52;;;;;;;;;;;;;;;;;;2067060;28;1329;-79
2021/12/20 04:13:56;;;;;;;;;;;;;;;;;;2058927;28;1978;-79
2021/12/20 04:14:57;;;;;;;;;;;;;;;;;;2059429;28;963;-82
2021/12/20 04:15:59;;;;;;;;;;;;;;;;;;2059006;28;1272;-80
2021/12/20 04:17:00;;;;;;;;;;;;;;;;;;2050972;28;1306;-80
2021/12/20 04:18:02;;;;;;;;;;;;;;;;;;2058723;28;1409;-80
2021/12/20 04:19:03;;;;;;;;;;;;;;;;;;2066871;28;884;-80
2021/12/20 04:20:05;;;;;;;;;;;;;;;;;;2059552;28;1088;-80
2021/12/20 04:21:06;;;;;;;;;;;;;;;;;;2058919;28;1333;-79
2021/12/20 04:22:07;;;;;;;;;;;;;;;;;;2056428;28;1241;-80
2021/12/20 04:23:08;;;;;;;;;;;;;;;;;;2050632;28;1269;-80
2021/12/20 04:24:11;;;;;;;;;;;;;;;;;;2050959;28;1555;-80
2021/12/20 04:25:13;;;;;;;;;;;;;;;;;;2058954;28;889;-80
2021/12/20 04:26:14;;;;;;;;;;;;;;;;;;2059558;28;821;-80
2021/12/20 04:27:15;;;;;;;;;;;;;;;;;;2059512;28;1047;-79
2021/12/20 04:28:16;;;;;;;;;;;;;;;;;;2059245;28;1077;-80
2021/12/20 04:29:18;;;;;;;;;;;;;;;;;;2059210;28;1087;-80
2021/12/20 04:30:19;;;;;;;;;;;;;;;;;;2058909;28;1507;-81
2021/12/20 04:31:21;;;;;;;;;;;;;;;;;;2058846;28;1025;-80
2021/12/20 04:32:22;;;;;;;;;;;;;;;;;;2058979;28;1486;-80
2021/12/20 04:33:23;;;;;;;;;;;;;;;;;;2058860;28;886;-80
2021/12/20 04:34:24;;;;;;;;;;;;;;;;;;2050856;29;1890;-79
2021/12/20 04:35:26;;;;;;;;;;;;;;;;;;2050891;29;840;-80
2021/12/20 04:36:28;;;;;;;;;;;;;;;;;;2050459;28;1947;-80
2021/12/20 04:37:29;;;;;;;;;;;;;;;;;;2042741;29;1166;-80
2021/12/20 04:38:31;;;;;;;;;;;;;;;;;;2051069;29;872;-80
2021/12/20 04:39:33;;;;;;;;;;;;;;;;;;2050832;29;1742;-80
2021/12/20 04:40:35;;;;;;;;;;;;;;;;;;2043056;29;1211;-80
2021/12/20 04:41:36;;;;;;;;;;;;;;;;;;2050658;28;1279;-80
2021/12/20 04:42:37;;;;;;;;;;;;;;;;;;2050930;29;1284;-80
2021/12/20 04:43:39;;;;;;;;;;;;;;;;;;2050787;29;1252;-80
2021/12/20 04:44:40;;;;;;;;;;;;;;;;;;2050947;29;1220;-80
2021/12/20 04:45:42;;;;;;;;;;;;;;;;;;2050509;29;1694;-81
2021/12/20 04:46:43;;;;;;;;;;;;;;;;;;2050715;28;1388;-80
2021/12/20 04:47:44;;;;;;;;;;;;;;;;;;2050835;29;1434;-80
2021/12/20 04:48:45;;;;;;;;;;;;;;;;;;2050953;28;1244;-80
2021/12/20 04:49:46;;;;;;;;;;;;;;;;;;2050687;28;1380;-80
2021/12/20 04:50:48;;;;;;;;;;;;;;;;;;2050924;28;1069;-80
2021/12/20 04:51:49;;;;;;;;;;;;;;;;;;2042667;29;1623;-80
2021/12/20 04:52:52;;;;;;;;;;;;;;;;;;2042994;29;829;-80
2021/12/20 04:53:53;;;;;;;;;;;;;;;;;;2050495;29;1375;-80
2021/12/20 04:54:55;;;;;;;;;;;;;;;;;;2042870;29;1906;-79
2021/12/20 04:55:57;;;;;;;;;;;;;;;;;;2044082;28;2019;-80
2021/12/20 04:56:58;;;;;;;;;;;;;;;;;;2058593;28;1363;-82
2021/12/20 04:58:00;;;;;;;;;;;;;;;;;;2050674;29;1247;-80
2021/12/20 04:59:01;;;;;;;;;;;;;;;;;;2050709;28;1531;-79
2021/12/20 05:00:04;;;;;;;;;;;;;;;;;;2058615;28;1251;-80
2021/12/20 05:01:06;;;;;;;;;;;;;;;;;;2043466;29;884;-79
2021/12/20 05:02:09;;;;;;;;;;;;;;;;;;2042690;29;1367;-78
2021/12/20 05:03:10;;;;;;;;;;;;;;;;;;2042711;29;1642;-80
2021/12/20 05:04:12;;;;;;;;;;;;;;;;;;2050710;29;888;-79
2021/12/20 05:05:13;;;;;;;;;;;;;;;;;;2042567;29;1519;-80
2021/12/20 05:06:15;;;;;;;;;;;;;;;;;;2042857;29;951;-80
2021/12/20 05:07:17;;;;;;;;;;;;;;;;;;2042168;29;1452;-79
2021/12/20 05:08:19;;;;;;;;;;;;;;;;;;2042883;29;927;-80
2021/12/20 05:09:21;;;;;;;;;;;;;;;;;;2050551;29;1268;-79
2021/12/20 05:10:26;;;;;;;;;;;;;;;;;;2050263;29;1209;-80
2021/12/20 05:11:29;;;;;;;;;;;;;;;;;;2042255;29;1391;-80
2021/12/20 05:12:30;;;;;;;;;;;;;;;;;;2042958;29;904;-79
2021/12/20 05:13:32;;;;;;;;;;;;;;;;;;2050791;29;944;-80
2021/12/20 05:14:33;;;;;;;;;;;;;;;;;;2051071;29;1906;-80
2021/12/20 05:15:35;;;;;;;;;;;;;;;;;;2051077;29;820;-80
2021/12/20 05:16:36;;;;;;;;;;;;;;;;;;2051204;28;1062;-79
2021/12/20 05:17:38;;;;;;;;;;;;;;;;;;2041938;29;1244;-79
2021/12/20 05:18:39;;;;;;;;;;;;;;;;;;2042555;29;1000;-79
2021/12/20 05:19:41;;;;;;;;;;;;;;;;;;2050200;29;1394;-79
2021/12/20 05:20:43;;;;;;;;;;;;;;;;;;2042755;29;1352;-79
2021/12/20 05:21:44;;;;;;;;;;;;;;;;;;2056633;28;2117;-79
2021/12/20 05:22:46;;;;;;;;;;;;;;;;;;2066196;28;1331;-79
2021/12/20 05:23:48;;;;;;;;;;;;;;;;;;2058287;28;1430;-81
2021/12/20 05:24:50;;;;;;;;;;;;;;;;;;2058534;28;1230;-80
2021/12/20 05:25:52;;;;;;;;;;;;;;;;;;2066081;28;1040;-80
2021/12/20 05:26:53;;;;;;;;;;;;;;;;;;2067012;28;1062;-80
2021/12/20 05:27:55;;;;;;;;;;;;;;;;;;2058100;28;1514;-81
2021/12/20 05:28:56;;;;;;;;;;;;;;;;;;2050408;28;1404;-82
2021/12/20 05:29:59;;;;;;;;;;;;;;;;;;2058619;28;948;-81
2021/12/20 05:31:01;;;;;;;;;;;;;;;;;;2058301;28;1234;-81
2021/12/20 05:32:04;;;;;;;;;;;;;;;;;;2050436;28;1369;-81
2021/12/20 05:33:06;;;;;;;;;;;;;;;;;;2058418;28;1064;-80
2021/12/20 05:34:07;;;;;;;;;;;;;;;;;;2059357;28;1220;-81
2021/12/20 05:35:09;;;;;;;;;;;;;;;;;;2058614;28;1919;-80
2021/12/20 05:36:10;;;;;;;;;;;;;;;;;;2050405;29;1231;-81
2021/12/20 05:37:13;;;;;;;;;;;;;;;;;;2050160;28;1189;-81
2021/12/20 05:38:14;;;;;;;;;;;;;;;;;;2050377;29;1259;-81
2021/12/20 05:39:16;;;;;;;;;;;;;;;;;;2049679;28;856;-81
2021/12/20 05:40:17;;;;;;;;;;;;;;;;;;2058327;28;1347;-81
2021/12/20 05:41:21;;;;;;;;;;;;;;;;;;2050354;29;1411;-81
2021/12/20 05:42:21;;;;;;;;;;;;;;;;;;2050591;28;956;-81
2021/12/20 05:43:24;;;;;;;;;;;;;;;;;;2058972;28;891;-80
2021/12/20 05:44:24;;;;;;;;;;;;;;;;;;2058798;28;883;-81
2021/12/20 05:45:26;;;;;;;;;;;;;;;;;;2058319;28;1204;-81
2021/12/20 05:46:27;;;;;;;;;;;;;;;;;;2058103;28;1208;-80
2021/12/20 05:47:28;;;;;;;;;;;;;;;;;;2049937;29;1528;-81
2021/12/20 05:48:30;;;;;;;;;;;;;;;;;;2049884;28;1381;-81
2021/12/20 05:49:32;;;;;;;;;;;;;;;;;;2049601;29;1421;-81
2021/12/20 05:50:34;;;;;;;;;;;;;;;;;;2049627;29;1293;-81
2021/12/20 05:51:35;;;;;;;;;;;;;;;;;;2057365;28;1616;-80
2021/12/20 05:52:37;;;;;;;;;;;;;;;;;;2049739;29;1415;-81
2021/12/20 05:53:38;;;;;;;;;;;;;;;;;;2044725;29;1129;-81
2021/12/20 05:54:39;;;;;;;;;;;;;;;;;;2050009;28;1899;-81
2021/12/20 05:55:41;;;;;;;;;;;;;;;;;;2049538;28;1297;-82
2021/12/20 05:56:43;;;;;;;;;;;;;;;;;;2049233;29;1379;-79
2021/12/20 05:57:45;;;;;;;;;;;;;;;;;;2049560;29;1205;-79
2021/12/20 05:58:45;;;;;;;;;;;;;;;;;;2041960;29;1725;-79
2021/12/20 05:59:47;;;;;;;;;;;;;;;;;;2044308;29;1272;-79
2021/12/20 06:00:49;;;;;;;;;;;;;;;;;;2045528;29;1539;-79
2021/12/20 06:01:49;;;;;;;;;;;;;;;;;;2048124;29;1637;-79
2021/12/20 06:02:52;;;;;;;;;;;;;;;;;;2043805;29;1272;-80
2021/12/20 06:03:52;;;;;;;;;;;;;;;;;;2046885;29;1355;-78
2021/12/20 06:04:54;;;;;;;;;;;;;;;;;;2036652;29;1843;-79
2021/12/20 06:05:55;;;;;;;;;;;;;;;;;;2044072;29;1821;-79
2021/12/20 06:06:56;;;;;;;;;;;;;;;;;;2052185;28;1207;-78
2021/12/20 06:07:57;;;;;;;;;;;;;;;;;;2058244;28;1263;-79
2021/12/20 06:08:59;;;;;;;;;;;;;;;;;;2058267;28;1239;-80
2021/12/20 06:10:01;;;;;;;;;;;;;;;;;;2049956;29;1548;-80
2021/12/20 06:11:01;;;;;;;;;;;;;;;;;;2050231;28;1891;-79
2021/12/20 06:12:06;;;;;;;;;;;;;;;;;;2058317;28;1278;-79
2021/12/20 06:13:07;;;;;;;;;;;;;;;;;;2049338;29;1633;-79
2021/12/20 06:14:08;;;;;;;;;;;;;;;;;;2041774;29;1563;-79
2021/12/20 06:15:10;;;;;;;;;;;;;;;;;;2049513;28;1895;-79
2021/12/20 06:16:11;;;;;;;;;;;;;;;;;;2047391;28;1875;-78
2021/12/20 06:17:12;;;;;;;;;;;;;;;;;;2048833;28;1268;-79
2021/12/20 06:18:13;;;;;;;;;;;;;;;;;;2058265;28;1255;-79
2021/12/20 06:19:14;;;;;;;;;;;;;;;;;;2049401;29;1520;-79
2021/12/20 06:20:16;;;;;;;;;;;;;;;;;;2041918;29;1350;-79
2021/12/20 06:21:16;;;;;;;;;;;;;;;;;;2039650;29;1926;-77
2021/12/20 06:22:18;;;;;;;;;;;;;;;;;;2053434;28;1429;-77
2021/12/20 06:23:18;;;;;;;;;;;;;;;;;;2055680;28;1538;-80
2021/12/20 06:24:20;;;;;;;;;;;;;;;;;;2049906;29;1282;-80
2021/12/20 06:25:22;;;;;;;;;;;;;;;;;;2058132;28;844;-78
2021/12/20 06:26:23;;;;;;;;;;;;;;;;;;2057600;28;1932;-79
2021/12/20 06:27:26;;;;;;;;;;;;;;;;;;2058150;28;864;-80
2021/12/20 06:28:27;;;;;;;;;;;;;;;;;;2065137;28;1224;-78
2021/12/20 06:29:28;;;;;;;;;;;;;;;;;;2053163;28;1696;-78
2021/12/20 06:30:30;;;;;;;;;;;;;;;;;;2056772;28;1669;-79
2021/12/20 06:31:30;;;;;;;;;;;;;;;;;;2056647;28;1640;-79
2021/12/20 06:32:32;;;;;;;;;;;;;;;;;;2054311;28;1679;-78
2021/12/20 06:33:32;;;;;;;;;;;;;;;;;;2049787;28;1512;-78
2021/12/20 06:34:35;;;;;;;;;;;;;;;;;;2057554;28;1298;-79
2021/12/20 06:35:36;;;;;;;;;;;;;;;;;;2065358;28;1907;-78
2021/12/20 06:36:38;;;;;;;;;;;;;;;;;;2071505;28;2090;-78
2021/12/20 06:37:42;;;;;;;;;;;;;;;;;;2057685;28;1701;-78
2021/12/20 06:38:46;;;;;;;;;;;;;;;;;;2058444;28;1298;-78
2021/12/20 06:39:46;;;;;;;;;;;;;;;;;;2057262;28;1636;-78
2021/12/20 06:40:48;;;;;;;;;;;;;;;;;;2057842;28;1064;-80
2021/12/20 06:41:50;;;;;;;;;;;;;;;;;;2064977;28;1214;-78
2021/12/20 06:42:52;;;;;;;;;;;;;;;;;;2064269;28;1262;-78
2021/12/20 06:43:53;;;;;;;;;;;;;;;;;;2050072;28;1527;-79
2021/12/20 06:44:54;;;;;;;;;;;;;;;;;;2057252;28;1496;-78
2021/12/20 06:45:55;;;;;;;;;;;;;;;;;;2062565;28;1889;-78
2021/12/20 06:46:57;;;;;;;;;;;;;;;;;;2057721;28;1213;-78
2021/12/20 06:47:58;;;;;;;;;;;;;;;;;;2063117;28;1560;-78
2021/12/20 06:48:59;;;;;;;;;;;;;;;;;;2057495;28;1247;-79
2021/12/20 06:50:00;;;;;;;;;;;;;;;;;;2049897;29;1805;-78
2021/12/20 06:51:01;;;;;;;;;;;;;;;;;;2055186;28;1707;-79
2021/12/20 06:52:03;;;;;;;;;;;;;;;;;;2066541;28;1274;-78
2021/12/20 06:53:06;;;;;;;;;;;;;;;;;;2049884;28;1516;-78
2021/12/20 06:54:06;;;;;;;;;;;;;;;;;;2058024;28;1301;-78
2021/12/20 06:55:09;;;;;;;;;;;;;;;;;;2065400;28;1922;-77
2021/12/20 06:56:12;;;;;;;;;;;;;;;;;;2065932;28;1750;-78
2021/12/20 06:57:14;;;;;;;;;;;;;;;;;;2055316;28;1337;-77
2021/12/20 06:58:17;;;;;;;;;;;;;;;;;;2049782;29;1851;-79
2021/12/20 06:59:18;;;;;;;;;;;;;;;;;;2052217;28;1653;-79
2021/12/20 07:00:20;;;;;;;;;;;;;;;;;;2055126;28;1404;-78
2021/12/20 07:01:20;;;;;;;;;;;;;;;;;;2066011;28;1912;-79
2021/12/20 07:02:22;;;;;;;;;;;;;;;;;;2060174;28;1298;-79
2021/12/20 07:03:24;;;;;;;;;;;;;;;;;;2057984;28;1317;-79
2021/12/20 07:04:24;;;;;;;;;;;;;;;;;;2063015;28;1290;-79
2021/12/20 07:05:26;;;;;;;;;;;;;;;;;;2052053;28;1342;-78
2021/12/20 07:06:27;;;;;;;;;;;;;;;;;;2058509;28;2079;-78
2021/12/20 07:07:29;;;;;;;;;;;;;;;;;;2066398;28;950;-79
2021/12/20 07:08:30;;;;;;;;;;;;;;;;;;2066041;28;1327;-78
2021/12/20 07:09:31;;;;;;;;;;;;;;;;;;2057675;28;1356;-78
2021/12/20 07:10:33;;;;;;;;;;;;;;;;;;2049937;29;1318;-83
2021/12/20 07:11:33;;;;;;;;;;;;;;;;;;2049671;28;1521;-78
2021/12/20 07:12:36;;;;;;;;;;;;;;;;;;2057963;28;1293;-78
2021/12/20 07:13:40;;;;;;;;;;;;;;;;;;2065824;28;1162;-79
2021/12/20 07:14:41;;;;;;;;;;;;;;;;;;2065651;28;1306;-79
2021/12/20 07:15:43;;;;;;;;;;;;;;;;;;2061391;28;1981;-78
2021/12/20 07:16:44;;;;;;;;;;;;;;;;;;2068531;28;1927;-79
2021/12/20 07:17:46;;;;;;;;;;;;;;;;;;2066012;28;828;-78
2021/12/20 07:18:47;;;;;;;;;;;;;;;;;;2057155;28;1450;-80
2021/12/20 07:19:48;;;;;;;;;;;;;;;;;;2056532;28;1629;-78
2021/12/20 07:20:49;;;;;;;;;;;;;;;;;;2056693;28;1823;-79